Time;durP1;ratioP1;P1;durP2;ratioP2;P2;SDS_P1;SDS_P2;PMS_P1;PMS_P2;Temp;Humidity;BMP_temperature;BMP_pressure;BME280_temperature;BME280_humidity;BME280_pressure;Samples;Min_cycle;Max_cycle;Signal;HPM_P1;HPM_P2
2022/10/05 00:02:14;;;;;;;7.73;7.23;;;;;;;;;;5042345;28;20466;-74
2022/10/05 00:04:40;;;;;;;10.10;9.30;;;;;;;;;;5046013;28;20902;-74
2022/10/05 00:07:13;;;;;;;11.60;7.10;;;;;;;;;;5042715;28;20437;-75
2022/10/05 00:09:39;;;;;;;8.60;7.87;;;;;;;;;;5046048;28;20410;-73
2022/10/05 00:12:18;;;;;;;7.97;7.37;;;;;;;;;;5040593;28;20463;-74
2022/10/05 00:14:45;;;;;;;8.07;7.37;;;;;;;;;;5045703;28;20816;-75
2022/10/05 00:17:21;;;;;;;7.10;6.60;;;;;;;;;;5041461;28;20499;-75
2022/10/05 00:19:51;;;;;;;7.30;6.80;;;;;;;;;;5045657;28;20405;-75
2022/10/05 00:22:28;;;;;;;7.30;6.80;;;;;;;;;;5040604;28;20461;-75
2022/10/05 00:25:01;;;;;;;7.20;6.80;;;;;;;;;;5045649;28;20892;-75
2022/10/05 00:27:31;;;;;;;6.30;5.80;;;;;;;;;;5042125;28;20492;-75
2022/10/05 00:29:58;;;;;;;7.33;6.63;;;;;;;;;;5045638;28;20793;-74
2022/10/05 00:32:24;;;;;;;7.00;6.30;;;;;;;;;;5042226;28;20441;-75
2022/10/05 00:34:50;;;;;;;7.70;6.93;;;;;;;;;;5045919;28;20405;-75
2022/10/05 00:37:16;;;;;;;8.00;7.40;;;;;;;;;;5041695;28;20536;-75
2022/10/05 00:39:42;;;;;;;7.50;6.83;;;;;;;;;;5045497;28;20401;-74
2022/10/05 00:42:14;;;;;;;8.53;7.83;;;;;;;;;;5042283;28;20538;-75
2022/10/05 00:44:44;;;;;;;7.10;6.50;;;;;;;;;;5042255;28;20410;-75
2022/10/05 00:47:13;;;;;;;8.37;7.57;;;;;;;;;;5040921;28;21045;-75
2022/10/05 00:49:48;;;;;;;8.67;7.83;;;;;;;;;;5046185;28;20413;-75
2022/10/05 00:52:21;;;;;;;7.63;6.93;;;;;;;;;;5055536;28;20432;-75
2022/10/05 00:55:07;;;;;;;7.77;7.27;;;;;;;;;;5063511;28;20406;-74
2022/10/05 00:57:54;;;;;;;6.97;6.40;;;;;;;;;;5039904;28;20449;-74
2022/10/05 01:00:22;;;;;;;10.90;7.07;;;;;;;;;;5045369;28;20429;-74
2022/10/05 01:02:58;;;;;;;9.07;8.27;;;;;;;;;;5042984;28;20474;-74
2022/10/05 01:05:27;;;;;;;8.80;8.20;;;;;;;;;;5007839;28;20441;-74
2022/10/05 01:07:53;;;;;;;8.10;7.50;;;;;;;;;;5042893;28;20528;-73
2022/10/05 01:10:19;;;;;;;9.87;8.43;;;;;;;;;;5044190;28;20517;-74
2022/10/05 01:12:51;;;;;;;7.33;6.73;;;;;;;;;;5041328;28;20437;-74
2022/10/05 01:15:22;;;;;;;7.70;7.10;;;;;;;;;;5049312;28;20434;-74
2022/10/05 01:18:05;;;;;;;8.10;7.50;;;;;;;;;;5045105;28;20466;-76
2022/10/05 01:20:55;;;;;;;8.17;7.40;;;;;;;;;;5027908;28;20426;-74
2022/10/05 01:23:30;;;;;;;9.40;7.10;;;;;;;;;;5041023;28;20495;-74
2022/10/05 01:26:07;;;;;;;7.63;6.93;;;;;;;;;;5030819;28;20456;-74
2022/10/05 01:28:59;;;;;;;8.40;7.47;;;;;;;;;;5042155;28;20967;-74
2022/10/05 01:31:29;;;;;;;8.43;7.80;;;;;;;;;;5008472;28;20814;-75
2022/10/05 01:34:12;;;;;;;7.63;7.13;;;;;;;;;;5029673;28;20500;-75
2022/10/05 01:36:48;;;;;;;7.80;7.30;;;;;;;;;;5036617;28;20436;-75
2022/10/05 01:39:29;;;;;;;7.87;7.23;;;;;;;;;;5027646;28;21132;-75
2022/10/05 01:42:11;;;;;;;8.50;7.80;;;;;;;;;;5036500;28;20468;-75
2022/10/05 01:44:57;;;;;;;8.43;7.70;;;;;;;;;;5044959;28;20438;-75
2022/10/05 01:47:23;;;;;;;7.93;7.23;;;;;;;;;;5040142;28;20433;-75
2022/10/05 01:49:57;;;;;;;8.20;7.50;;;;;;;;;;5048944;28;20467;-75
2022/10/05 01:52:56;;;;;;;8.27;7.47;;;;;;;;;;5040851;28;20960;-75
2022/10/05 01:55:22;;;;;;;7.97;7.47;;;;;;;;;;4994491;28;20937;-75
2022/10/05 01:57:53;;;;;;;8.33;7.60;;;;;;;;;;5045215;28;20441;-74
2022/10/05 02:00:20;;;;;;;9.33;7.67;;;;;;;;;;5048803;28;20436;-75
2022/10/05 02:02:59;;;;;;;8.30;7.33;;;;;;;;;;5042953;28;20469;-75
2022/10/05 02:05:37;;;;;;;7.63;7.00;;;;;;;;;;5048150;28;20425;-75
2022/10/05 02:08:07;;;;;;;8.33;7.53;;;;;;;;;;5046580;28;20786;-75
2022/10/05 02:10:38;;;;;;;10.30;9.37;;;;;;;;;;5048374;28;20422;-75
2022/10/05 02:13:25;;;;;;;7.90;7.30;;;;;;;;;;5046917;28;20436;-75
2022/10/05 02:15:55;;;;;;;11.80;7.47;;;;;;;;;;5028093;28;20426;-75
2022/10/05 02:18:27;;;;;;;7.87;7.17;;;;;;;;;;5035444;28;20445;-75
2022/10/05 02:20:54;;;;;;;8.10;7.30;;;;;;;;;;5028133;28;21074;-76
2022/10/05 02:23:23;;;;;;;8.97;8.10;;;;;;;;;;5046547;28;20430;-75
2022/10/05 02:25:50;;;;;;;8.00;7.20;;;;;;;;;;5045352;28;20778;-75
2022/10/05 02:28:16;;;;;;;8.63;7.93;;;;;;;;;;5046080;28;20910;-74
2022/10/05 02:30:51;;;;;;;9.00;8.10;;;;;;;;;;5045912;28;20413;-73
2022/10/05 02:33:27;;;;;;;9.67;7.53;;;;;;;;;;5037040;28;20421;-74
2022/10/05 02:35:53;;;;;;;7.57;6.90;;;;;;;;;;5045680;28;20433;-74
2022/10/05 02:38:26;;;;;;;7.80;7.20;;;;;;;;;;5046400;28;20433;-74
2022/10/05 02:41:07;;;;;;;8.27;7.67;;;;;;;;;;5026937;28;20442;-75
2022/10/05 02:43:49;;;;;;;7.30;6.80;;;;;;;;;;5038703;28;20434;-75
2022/10/05 02:46:24;;;;;;;7.67;7.17;;;;;;;;;;5030026;28;20441;-74
2022/10/05 02:48:50;;;;;;;8.07;7.47;;;;;;;;;;5031877;28;20477;-74
2022/10/05 02:51:33;;;;;;;7.97;7.37;;;;;;;;;;5045420;28;20481;-75
2022/10/05 02:53:59;;;;;;;7.70;7.03;;;;;;;;;;5058101;28;20433;-74
2022/10/05 02:56:36;;;;;;;7.40;6.77;;;;;;;;;;5068404;28;20445;-74
2022/10/05 02:59:07;;;;;;;7.57;6.80;;;;;;;;;;5042748;28;20434;-74
2022/10/05 03:01:39;;;;;;;7.77;7.17;;;;;;;;;;5032206;28;20523;-75
2022/10/05 03:04:17;;;;;;;7.80;5.70;;;;;;;;;;5028519;28;20431;-74
2022/10/05 03:06:51;;;;;;;8.10;6.73;;;;;;;;;;5044533;28;20807;-73
2022/10/05 03:09:19;;;;;;;9.63;7.73;;;;;;;;;;5044260;28;20444;-74
2022/10/05 03:11:45;;;;;;;7.60;7.20;;;;;;;;;;5045122;28;20446;-74
2022/10/05 03:14:18;;;;;;;6.80;6.23;;;;;;;;;;5045581;28;20544;-74
2022/10/05 03:16:52;;;;;;;7.17;6.60;;;;;;;;;;5045293;28;20700;-74
2022/10/05 03:19:37;;;;;;;8.00;7.30;;;;;;;;;;5043135;28;20812;-74
2022/10/05 03:22:21;;;;;;;10.43;7.90;;;;;;;;;;5044966;28;20471;-74
2022/10/05 03:24:54;;;;;;;7.70;7.00;;;;;;;;;;5027091;28;20418;-74
2022/10/05 03:27:32;;;;;;;8.20;7.67;;;;;;;;;;5035658;28;20960;-74
2022/10/05 03:30:08;;;;;;;20.10;7.30;;;;;;;;;;5046776;28;20468;-74
2022/10/05 03:32:37;;;;;;;7.73;6.87;;;;;;;;;;5043474;28;21011;-74
2022/10/05 03:35:06;;;;;;;7.27;6.50;;;;;;;;;;5046617;28;20405;-74
2022/10/05 03:37:38;;;;;;;7.50;6.80;;;;;;;;;;5042983;28;20437;-74
2022/10/05 03:40:12;;;;;;;6.97;6.47;;;;;;;;;;5046775;28;20421;-75
2022/10/05 03:42:49;;;;;;;7.63;6.93;;;;;;;;;;5037431;28;20464;-75
2022/10/05 03:45:23;;;;;;;6.83;6.43;;;;;;;;;;5044368;28;20467;-75
2022/10/05 03:48:00;;;;;;;8.33;7.53;;;;;;;;;;5038676;28;20445;-74
2022/10/05 03:50:39;;;;;;;8.20;7.60;;;;;;;;;;5046696;28;20409;-74
2022/10/05 03:53:09;;;;;;;8.50;7.90;;;;;;;;;;5041873;28;20959;-74
2022/10/05 03:55:53;;;;;;;7.30;6.73;;;;;;;;;;5046606;28;20485;-75
2022/10/05 03:58:25;;;;;;;10.57;7.23;;;;;;;;;;5042664;28;20434;-76
2022/10/05 04:00:53;;;;;;;7.37;6.57;;;;;;;;;;5042709;28;20937;-74
2022/10/05 04:03:19;;;;;;;7.07;6.67;;;;;;;;;;5033574;28;20431;-75
2022/10/05 04:05:56;;;;;;;8.00;7.50;;;;;;;;;;5045306;28;20792;-75
2022/10/05 04:08:25;;;;;;;8.13;7.00;;;;;;;;;;5042771;28;20433;-75
2022/10/05 04:10:53;;;;;;;8.07;7.47;;;;;;;;;;5045925;28;21372;-75
2022/10/05 04:13:19;;;;;;;9.13;8.37;;;;;;;;;;5042695;28;20465;-75
2022/10/05 04:15:49;;;;;;;7.97;7.37;;;;;;;;;;5045675;28;20645;-75
2022/10/05 04:18:23;;;;;;;8.20;7.60;;;;;;;;;;5042300;28;20429;-74
2022/10/05 04:20:52;;;;;;;9.90;8.90;;;;;;;;;;5025990;28;20770;-75
2022/10/05 04:23:51;;;;;;;10.77;9.53;;;;;;;;;;5042197;28;20513;-75
2022/10/05 04:26:24;;;;;;;8.90;8.03;;;;;;;;;;4971772;28;20956;-74
2022/10/05 04:29:00;;;;;;;13.30;8.60;;;;;;;;;;5030208;28;20438;-76
2022/10/05 04:31:45;;;;;;;8.90;8.20;;;;;;;;;;5044110;28;20450;-76
2022/10/05 04:34:20;;;;;;;9.20;8.20;;;;;;;;;;5029515;28;20446;-78
2022/10/05 04:36:52;;;;;;;6.77;6.37;;;;;;;;;;5029060;28;20465;-79
2022/10/05 04:39:26;;;;;;;8.73;8.07;;;;;;;;;;5039416;28;20498;-77
2022/10/05 04:42:18;;;;;;;9.00;8.20;;;;;;;;;;5029843;28;20496;-78
2022/10/05 04:45:02;;;;;;;9.23;8.60;;;;;;;;;;5040150;28;21002;-76
2022/10/05 04:47:27;;;;;;;9.13;8.40;;;;;;;;;;5016429;28;20952;-76
2022/10/05 04:50:10;;;;;;;7.20;6.70;;;;;;;;;;5037421;28;20453;-76
2022/10/05 04:52:55;;;;;;;7.77;7.27;;;;;;;;;;5031290;28;20534;-77
2022/10/05 04:55:28;;;;;;;9.23;7.67;;;;;;;;;;5047449;28;20427;-77
2022/10/05 04:58:07;;;;;;;7.90;7.40;;;;;;;;;;5038554;28;20469;-78
2022/10/05 05:00:39;;;;;;;7.37;6.97;;;;;;;;;;5045679;28;20395;-77
2022/10/05 05:03:24;;;;;;;7.57;7.07;;;;;;;;;;5030668;28;20446;-75
2022/10/05 05:06:05;;;;;;;7.80;7.20;;;;;;;;;;5026510;28;20437;-74
2022/10/05 05:08:40;;;;;;;7.43;7.03;;;;;;;;;;5041543;28;20509;-75
2022/10/05 05:11:12;;;;;;;8.23;7.60;;;;;;;;;;5044963;28;20440;-74
2022/10/05 05:13:57;;;;;;;9.20;8.40;;;;;;;;;;5003949;28;20808;-74
2022/10/05 05:16:39;;;;;;;6.60;6.10;;;;;;;;;;5042321;28;20433;-74
2022/10/05 05:19:15;;;;;;;8.57;6.70;;;;;;;;;;5030674;28;20852;-74
2022/10/05 05:21:41;;;;;;;7.10;6.60;;;;;;;;;;5041423;28;20492;-75
2022/10/05 05:24:10;;;;;;;8.33;7.77;;;;;;;;;;5043138;28;20467;-74
2022/10/05 05:27:01;;;;;;;7.60;7.10;;;;;;;;;;5043260;28;20423;-75
2022/10/05 05:29:30;;;;;;;7.63;6.80;;;;;;;;;;5038494;28;20434;-74
2022/10/05 05:32:15;;;;;;;8.23;7.10;;;;;;;;;;5042660;28;20520;-76
2022/10/05 05:34:48;;;;;;;6.33;5.90;;;;;;;;;;5025949;28;20449;-75
2022/10/05 05:37:40;;;;;;;6.00;5.70;;;;;;;;;;5030470;28;20434;-76
2022/10/05 05:40:38;;;;;;;5.87;5.47;;;;;;;;;;4994017;28;20566;-75
2022/10/05 05:43:19;;;;;;;7.07;6.50;;;;;;;;;;4995568;28;20499;-78
2022/10/05 05:45:56;;;;;;;6.60;6.20;;;;;;;;;;5040126;28;20777;-77
2022/10/05 05:48:32;;;;;;;6.37;6.07;;;;;;;;;;5037869;28;20522;-76
2022/10/05 05:51:17;;;;;;;6.47;5.97;;;;;;;;;;5042583;28;20504;-78
2022/10/05 05:53:49;;;;;;;8.50;5.93;;;;;;;;;;5039635;28;20429;-77
2022/10/05 05:56:26;;;;;;;7.50;6.80;;;;;;;;;;5043554;28;20796;-77
2022/10/05 05:58:55;;;;;;;7.30;6.90;;;;;;;;;;5031527;28;20425;-76
2022/10/05 06:01:29;;;;;;;6.80;6.30;;;;;;;;;;5046176;28;20461;-76
2022/10/05 06:03:57;;;;;;;6.50;6.13;;;;;;;;;;5035936;28;20806;-77
2022/10/05 06:06:30;;;;;;;5.50;5.10;;;;;;;;;;5047736;28;20421;-76
2022/10/05 06:08:57;;;;;;;6.87;6.40;;;;;;;;;;5045489;28;20449;-77
2022/10/05 06:11:25;;;;;;;5.67;5.37;;;;;;;;;;5048440;28;20426;-77
2022/10/05 06:13:52;;;;;;;6.67;6.27;;;;;;;;;;4341050;28;10000733;-77
2022/10/05 06:16:24;;;;;;;6.60;6.10;;;;;;;;;;5036177;28;20558;-77
2022/10/05 06:18:54;;;;;;;7.13;6.67;;;;;;;;;;5040835;28;20467;-76
2022/10/05 06:21:38;;;;;;;11.37;6.60;;;;;;;;;;5036150;28;20462;-77
2022/10/05 06:24:08;;;;;;;6.57;6.00;;;;;;;;;;5042162;28;20433;-76
2022/10/05 06:26:43;;;;;;;6.23;5.77;;;;;;;;;;5040580;28;20432;-77
2022/10/05 06:29:13;;;;;;;6.50;6.10;;;;;;;;;;5038276;28;20809;-76
2022/10/05 06:31:52;;;;;;;6.93;6.50;;;;;;;;;;5034198;28;20462;-75
2022/10/05 06:34:18;;;;;;;7.23;6.50;;;;;;;;;;5039797;28;20502;-77
2022/10/05 06:36:47;;;;;;;5.90;5.60;;;;;;;;;;5037908;28;20439;-78
2022/10/05 06:39:25;;;;;;;94.00;17.03;;;;;;;;;;5045675;28;20422;-75
2022/10/05 06:42:12;;;;;;;7.97;7.33;;;;;;;;;;5049542;28;20589;-76
2022/10/05 06:44:44;;;;;;;6.40;5.90;;;;;;;;;;5033005;28;20536;-76
2022/10/05 06:47:38;;;;;;;6.60;6.20;;;;;;;;;;5037558;28;20441;-75
2022/10/05 06:50:11;;;;;;;6.10;5.70;;;;;;;;;;4992235;28;20853;-76
2022/10/05 06:52:37;;;;;;;6.57;5.80;;;;;;;;;;5034199;28;20448;-76
2022/10/05 06:55:03;;;;;;;9.23;5.40;;;;;;;;;;5034589;28;20453;-75
2022/10/05 06:57:35;;;;;;;5.30;4.80;;;;;;;;;;5042344;28;20544;-76
2022/10/05 07:00:01;;;;;;;11.50;5.90;;;;;;;;;;5042664;28;20473;-76
2022/10/05 07:02:29;;;;;;;5.87;5.57;;;;;;;;;;5062436;28;20462;-76
2022/10/05 07:05:01;;;;;;;5.93;5.43;;;;;;;;;;5043930;28;20430;-76
2022/10/05 07:08:00;;;;;;;8.67;5.57;;;;;;;;;;5037449;28;20458;-77
2022/10/05 07:10:36;;;;;;;9.17;8.40;;;;;;;;;;4993967;28;20491;-76
2022/10/05 07:13:07;;;;;;;5.47;5.07;;;;;;;;;;5035733;28;21062;-77
2022/10/05 07:15:48;;;;;;;5.33;4.93;;;;;;;;;;5026583;28;20421;-75
2022/10/05 07:18:25;;;;;;;4.77;4.37;;;;;;;;;;5038443;28;20451;-76
2022/10/05 07:21:03;;;;;;;5.87;5.57;;;;;;;;;;5037359;28;20521;-76
2022/10/05 07:23:41;;;;;;;4.73;4.53;;;;;;;;;;5039351;28;20841;-77
2022/10/05 07:26:21;;;;;;;6.00;5.70;;;;;;;;;;5031630;28;20414;-77
2022/10/05 07:28:51;;;;;;;5.17;4.87;;;;;;;;;;5037362;28;20604;-77
2022/10/05 07:31:32;;;;;;;4.87;4.77;;;;;;;;;;5045008;28;20420;-77
2022/10/05 07:34:13;;;;;;;6.80;6.23;;;;;;;;;;5040828;28;20793;-77
2022/10/05 07:39:27;;;;;;;5.60;5.40;;;;;;;;;;5036535;28;21209;-76
2022/10/05 07:42:17;;;;;;;12.03;6.60;;;;;;;;;;5043847;28;20457;-78
2022/10/05 07:44:48;;;;;;;4.90;4.70;;;;;;;;;;5038597;28;20429;-76
2022/10/05 07:47:31;;;;;;;4.47;4.30;;;;;;;;;;5028211;28;20864;-76
2022/10/05 07:50:04;;;;;;;4.20;4.10;;;;;;;;;;5021255;28;20433;-77
2022/10/05 07:52:37;;;;;;;4.63;4.33;;;;;;;;;;5044269;28;20433;-76
2022/10/05 07:55:03;;;;;;;5.17;4.77;;;;;;;;;;5028611;28;20461;-76
2022/10/05 07:57:32;;;;;;;5.83;5.20;;;;;;;;;;5043129;28;20429;-77
2022/10/05 08:00:03;;;;;;;4.40;4.23;;;;;;;;;;5043865;28;20790;-77
2022/10/05 08:02:43;;;;;;;4.60;4.50;;;;;;;;;;5029365;28;20462;-77
2022/10/05 08:05:12;;;;;;;4.23;3.93;;;;;;;;;;5044448;28;20936;-78
2022/10/05 08:07:39;;;;;;;5.43;4.60;;;;;;;;;;5043603;28;20437;-77
2022/10/05 08:10:23;;;;;;;5.20;5.00;;;;;;;;;;5043889;28;20457;-76
2022/10/05 08:12:55;;;;;;;5.53;5.03;;;;;;;;;;5043966;28;20429;-76
2022/10/05 08:15:23;;;;;;;4.70;4.40;;;;;;;;;;5026509;28;20465;-76
2022/10/05 08:17:52;;;;;;;5.17;4.73;;;;;;;;;;5041865;28;20430;-76
2022/10/05 08:20:23;;;;;;;4.23;4.03;;;;;;;;;;5043895;28;20442;-77
2022/10/05 08:23:01;;;;;;;4.90;4.57;;;;;;;;;;5013210;28;20465;-76
2022/10/05 08:25:45;;;;;;;4.80;4.60;;;;;;;;;;5043297;28;20961;-74
2022/10/05 08:28:46;;;;;;;4.30;4.00;;;;;;;;;;4744183;28;10001292;-72
2022/10/05 08:31:26;;;;;;;5.07;4.63;;;;;;;;;;4965741;28;21196;-74
2022/10/05 08:34:00;;;;;;;4.60;4.20;;;;;;;;;;5037811;28;20839;-74
2022/10/05 08:36:32;;;;;;;3.37;3.27;;;;;;;;;;5033606;28;20841;-75
2022/10/05 08:38:59;;;;;;;4.10;3.80;;;;;;;;;;5038147;28;20441;-74
2022/10/05 08:41:41;;;;;;;4.77;4.23;;;;;;;;;;5025286;28;20517;-75
2022/10/05 08:44:13;;;;;;;4.03;3.93;;;;;;;;;;5036016;28;20433;-74
2022/10/05 08:46:53;;;;;;;5.03;4.77;;;;;;;;;;5044295;28;20463;-74
2022/10/05 08:49:37;;;;;;;4.10;3.90;;;;;;;;;;5041506;28;20429;-73
2022/10/05 08:52:06;;;;;;;4.27;4.07;;;;;;;;;;5043009;28;20453;-74
2022/10/05 08:54:36;;;;;;;4.27;3.90;;;;;;;;;;5043285;28;20571;-74
2022/10/05 08:57:14;;;;;;;4.40;4.10;;;;;;;;;;5042635;28;20430;-74
2022/10/05 09:00:03;;;;;;;3.90;3.20;;;;;;;;;;5034332;28;20491;-75
2022/10/05 09:02:29;;;;;;;4.80;4.37;;;;;;;;;;5043161;28;21106;-74
2022/10/05 09:04:57;;;;;;;3.63;3.53;;;;;;;;;;5030691;28;20466;-74
2022/10/05 09:07:27;;;;;;;3.10;3.00;;;;;;;;;;5044967;28;20469;-75
2022/10/05 09:10:12;;;;;;;3.90;3.70;;;;;;;;;;5052708;28;20426;-74
2022/10/05 09:12:40;;;;;;;4.20;3.87;;;;;;;;;;5052243;28;20528;-75
2022/10/05 09:15:25;;;;;;;4.07;3.77;;;;;;;;;;5029618;28;20509;-75
2022/10/05 09:18:10;;;;;;;4.53;4.10;;;;;;;;;;5042691;28;20433;-73
2022/10/05 09:20:52;;;;;;;3.80;3.70;;;;;;;;;;4687463;28;10000528;-75
2022/10/05 09:23:21;;;;;;;4.10;3.90;;;;;;;;;;5039812;28;20214;-74
2022/10/05 09:25:53;;;;;;;7.23;4.57;;;;;;;;;;5031733;28;20438;-74
2022/10/05 09:28:19;;;;;;;4.50;4.30;;;;;;;;;;5039950;28;20538;-73
2022/10/05 09:30:52;;;;;;;3.77;3.67;;;;;;;;;;5031152;28;20441;-74
2022/10/05 09:33:36;;;;;;;5.60;3.60;;;;;;;;;;5040060;28;20453;-74
2022/10/05 09:36:18;;;;;;;4.47;4.27;;;;;;;;;;5028107;28;20430;-75
2022/10/05 09:39:02;;;;;;;4.37;4.27;;;;;;;;;;5041705;28;20816;-74
2022/10/05 09:41:47;;;;;;;4.67;4.47;;;;;;;;;;5047549;28;20461;-74
2022/10/05 09:44:26;;;;;;;4.17;3.93;;;;;;;;;;5042928;28;20621;-74
2022/10/05 09:46:52;;;;;;;4.07;3.87;;;;;;;;;;5047655;28;20437;-74
2022/10/05 09:49:36;;;;;;;4.30;3.93;;;;;;;;;;5044090;28;20941;-75
2022/10/05 09:52:04;;;;;;;3.57;3.47;;;;;;;;;;5047399;28;21250;-75
2022/10/05 09:54:47;;;;;;;3.90;3.80;;;;;;;;;;5044104;28;20449;-76
2022/10/05 09:57:31;;;;;;;3.67;3.47;;;;;;;;;;5025905;28;20418;-74
2022/10/05 10:00:16;;;;;;;4.23;4.10;;;;;;;;;;5032164;28;20457;-74
2022/10/05 10:02:42;;;;;;;4.73;4.33;;;;;;;;;;5044630;28;20563;-73
2022/10/05 10:05:18;;;;;;;3.53;3.40;;;;;;;;;;5045166;28;20548;-74
2022/10/05 10:08:04;;;;;;;3.37;3.20;;;;;;;;;;5030210;28;20734;-76
2022/10/05 10:10:49;;;;;;;4.77;4.00;;;;;;;;;;5046549;28;20814;-76
2022/10/05 10:13:20;;;;;;;4.33;4.03;;;;;;;;;;5034325;28;20433;-76
2022/10/05 10:16:05;;;;;;;3.50;3.40;;;;;;;;;;5027945;28;20466;-73
2022/10/05 10:18:44;;;;;;;4.07;3.87;;;;;;;;;;5045348;28;20551;-74
2022/10/05 10:21:29;;;;;;;3.80;3.70;;;;;;;;;;5047732;28;20402;-75
2022/10/05 10:23:57;;;;;;;4.23;3.97;;;;;;;;;;5043198;28;20579;-76
2022/10/05 10:26:26;;;;;;;4.17;3.87;;;;;;;;;;5046165;28;20417;-74
2022/10/05 10:28:52;;;;;;;3.80;3.60;;;;;;;;;;5043087;28;20441;-76
2022/10/05 10:31:37;;;;;;;4.17;3.83;;;;;;;;;;5047284;28;20432;-75
2022/10/05 10:34:03;;;;;;;4.50;4.20;;;;;;;;;;5042595;28;20441;-75
2022/10/05 10:36:49;;;;;;;3.63;3.53;;;;;;;;;;5047081;28;20783;-75
2022/10/05 10:39:15;;;;;;;4.33;4.00;;;;;;;;;;5041538;28;20994;-75
2022/10/05 10:41:54;;;;;;;3.63;3.40;;;;;;;;;;5046688;28;20467;-76
2022/10/05 10:44:26;;;;;;;3.50;3.40;;;;;;;;;;5042927;28;20453;-74
2022/10/05 10:47:22;;;;;;;4.47;4.37;;;;;;;;;;5045798;28;20404;-75
2022/10/05 10:49:54;;;;;;;7.67;4.43;;;;;;;;;;5032718;28;20434;-76
2022/10/05 10:52:30;;;;;;;4.47;4.07;;;;;;;;;;5046476;28;20425;-74
2022/10/05 10:55:14;;;;;;;6.63;4.40;;;;;;;;;;5034907;28;20476;-75
2022/10/05 10:57:52;;;;;;;19.23;4.53;;;;;;;;;;5044868;28;20422;-75
2022/10/05 11:00:37;;;;;;;3.83;3.60;;;;;;;;;;5044153;28;20434;-75
2022/10/05 11:03:14;;;;;;;4.03;3.73;;;;;;;;;;5044128;28;20450;-74
2022/10/05 11:05:59;;;;;;;6.90;3.93;;;;;;;;;;5024967;28;20414;-75
2022/10/05 11:08:41;;;;;;;4.37;4.10;;;;;;;;;;5043191;28;20580;-74
2022/10/05 11:11:39;;;;;;;27.00;4.77;;;;;;;;;;5025754;28;20445;-75
2022/10/05 11:14:19;;;;;;;3.20;3.20;;;;;;;;;;4993123;28;20814;-76
2022/10/05 11:17:04;;;;;;;2.57;2.57;;;;;;;;;;5046784;28;21385;-75
2022/10/05 11:19:46;;;;;;;3.53;3.43;;;;;;;;;;5056788;28;20434;-76
2022/10/05 11:22:20;;;;;;;3.20;3.10;;;;;;;;;;5064509;28;20469;-74
2022/10/05 11:25:05;;;;;;;2.80;2.80;;;;;;;;;;5042949;28;20578;-74
2022/10/05 11:27:46;;;;;;;3.20;3.10;;;;;;;;;;5044507;28;20429;-75
2022/10/05 11:30:25;;;;;;;3.63;3.57;;;;;;;;;;5044006;28;20440;-76
2022/10/05 11:32:51;;;;;;;3.93;3.80;;;;;;;;;;4683636;28;10000483;-75
2022/10/05 11:35:47;;;;;;;5.97;3.83;;;;;;;;;;5032001;28;20537;-74
2022/10/05 11:38:32;;;;;;;3.00;3.00;;;;;;;;;;5016782;28;21055;-75
2022/10/05 11:41:07;;;;;;;3.93;3.63;;;;;;;;;;5031662;28;20446;-75
2022/10/05 11:43:40;;;;;;;4.10;3.90;;;;;;;;;;5039954;28;20449;-76
2022/10/05 11:46:24;;;;;;;3.47;3.47;;;;;;;;;;5040912;28;20418;-75
2022/10/05 11:48:54;;;;;;;5.57;4.20;;;;;;;;;;5032233;28;20437;-76
2022/10/05 11:51:20;;;;;;;22.23;6.80;;;;;;;;;;5044812;28;20472;-74
2022/10/05 11:54:16;;;;;;;4.60;3.77;;;;;;;;;;5043590;28;20450;-75
2022/10/05 11:56:45;;;;;;;3.87;3.60;;;;;;;;;;5025676;28;20668;-75
2022/10/05 11:59:20;;;;;;;3.30;3.20;;;;;;;;;;5022664;28;20449;-76
2022/10/05 12:01:52;;;;;;;3.03;3.03;;;;;;;;;;5040543;28;20470;-75
2022/10/05 12:04:37;;;;;;;3.60;3.20;;;;;;;;;;5021992;28;20450;-76
2022/10/05 12:07:14;;;;;;;3.83;3.60;;;;;;;;;;5025502;28;20907;-75
2022/10/05 12:12:36;;;;;;;11.27;4.07;;;;;;;;;;5025342;28;20520;-76
2022/10/05 12:15:06;;;;;;;3.40;3.30;;;;;;;;;;5021600;28;20442;-75
2022/10/05 12:17:37;;;;;;;3.73;3.63;;;;;;;;;;5005741;28;20418;-76
2022/10/05 12:20:10;;;;;;;4.80;3.93;;;;;;;;;;5021383;28;20495;-76
2022/10/05 12:22:42;;;;;;;3.50;3.33;;;;;;;;;;5006393;28;21190;-74
2022/10/05 12:25:11;;;;;;;7.23;4.23;;;;;;;;;;5022909;28;20422;-75
2022/10/05 12:27:45;;;;;;;10.97;10.40;;;;;;;;;;4666397;28;10000474;-77
2022/10/05 12:30:26;;;;;;;3.70;3.60;;;;;;;;;;5016254;28;20789;-75
2022/10/05 12:33:21;;;;;;;3.47;3.37;;;;;;;;;;5018974;28;20922;-76
2022/10/05 12:36:02;;;;;;;3.83;3.73;;;;;;;;;;5015208;28;20443;-77
2022/10/05 12:38:40;;;;;;;3.80;3.70;;;;;;;;;;5011741;28;20937;-76
2022/10/05 12:41:11;;;;;;;3.50;3.40;;;;;;;;;;5011188;28;20442;-74
2022/10/05 12:44:03;;;;;;;3.17;3.13;;;;;;;;;;5020460;28;20531;-75
2022/10/05 12:46:38;;;;;;;3.00;2.90;;;;;;;;;;5009932;28;20459;-73
2022/10/05 12:49:19;;;;;;;3.17;2.90;;;;;;;;;;5016892;28;20438;-74
2022/10/05 12:51:56;;;;;;;3.17;2.90;;;;;;;;;;5011137;28;20416;-74
2022/10/05 12:54:24;;;;;;;2.73;2.73;;;;;;;;;;5018536;28;20942;-76
2022/10/05 12:56:55;;;;;;;2.60;2.50;;;;;;;;;;5012205;28;20763;-75
2022/10/05 12:59:33;;;;;;;2.07;2.07;;;;;;;;;;5018360;28;20438;-74
2022/10/05 13:02:23;;;;;;;3.07;2.97;;;;;;;;;;5017346;28;20754;-75
2022/10/05 13:04:58;;;;;;;3.80;2.30;;;;;;;;;;5032824;28;20802;-75
2022/10/05 13:07:27;;;;;;;2.47;2.47;;;;;;;;;;5033620;28;20414;-75
2022/10/05 13:10:11;;;;;;;2.57;2.57;;;;;;;;;;5038301;28;20536;-75
2022/10/05 13:12:52;;;;;;;2.30;2.30;;;;;;;;;;5037237;28;20414;-76
2022/10/05 13:15:43;;;;;;;2.13;2.13;;;;;;;;;;5043949;28;20803;-74
2022/10/05 13:18:21;;;;;;;2.43;2.13;;;;;;;;;;5028658;28;20445;-76
2022/10/05 13:21:07;;;;;;;2.37;2.17;;;;;;;;;;5034140;28;20434;-74
2022/10/05 13:23:48;;;;;;;2.30;2.00;;;;;;;;;;5032538;28;20448;-75
2022/10/05 13:26:17;;;;;;;2.03;2.00;;;;;;;;;;5044180;28;20502;-75
2022/10/05 13:28:43;;;;;;;1.70;1.70;;;;;;;;;;5047558;28;20425;-75
2022/10/05 13:31:12;;;;;;;2.60;2.03;;;;;;;;;;5063203;28;20485;-74
2022/10/05 13:33:55;;;;;;;1.70;1.60;;;;;;;;;;5062104;28;20463;-74
2022/10/05 13:36:54;;;;;;;1.87;1.87;;;;;;;;;;5044026;28;20433;-76
2022/10/05 13:39:33;;;;;;;2.63;2.17;;;;;;;;;;4988808;28;20928;-74
2022/10/05 13:42:04;;;;;;;1.63;1.63;;;;;;;;;;5028442;28;20700;-75
2022/10/05 13:44:32;;;;;;;1.83;1.70;;;;;;;;;;5041719;28;20469;-74
2022/10/05 13:47:05;;;;;;;2.10;2.10;;;;;;;;;;5045931;28;20764;-75
2022/10/05 13:49:49;;;;;;;1.70;1.60;;;;;;;;;;5042800;28;20436;-74
2022/10/05 13:52:21;;;;;;;5.13;2.00;;;;;;;;;;5047387;28;20404;-76
2022/10/05 13:54:52;;;;;;;3.23;2.93;;;;;;;;;;5044024;28;20794;-76
2022/10/05 13:57:30;;;;;;;1.83;1.83;;;;;;;;;;5047988;28;20413;-75
2022/10/05 14:00:03;;;;;;;1.70;1.70;;;;;;;;;;5043815;28;20464;-78
2022/10/05 14:02:30;;;;;;;2.87;2.10;;;;;;;;;;5047566;28;20577;-75
2022/10/05 14:05:14;;;;;;;1.90;1.90;;;;;;;;;;5043530;28;20442;-74
2022/10/05 14:07:48;;;;;;;1.73;1.73;;;;;;;;;;5049411;28;20417;-75
2022/10/05 14:10:28;;;;;;;1.70;1.70;;;;;;;;;;5042296;28;20436;-76
2022/10/05 14:12:54;;;;;;;2.37;2.37;;;;;;;;;;5047822;28;20432;-75
2022/10/05 14:15:31;;;;;;;1.97;1.87;;;;;;;;;;5044455;28;20449;-74
2022/10/05 14:17:57;;;;;;;1.90;1.90;;;;;;;;;;5026900;28;20747;-75
2022/10/05 14:20:26;;;;;;;2.30;2.20;;;;;;;;;;5042587;28;20456;-76
2022/10/05 14:22:58;;;;;;;1.60;1.60;;;;;;;;;;5046705;28;20471;-76
2022/10/05 14:25:24;;;;;;;2.00;2.00;;;;;;;;;;5043628;28;20449;-74
2022/10/05 14:27:50;;;;;;;2.00;2.00;;;;;;;;;;5045897;28;20528;-75
2022/10/05 14:30:22;;;;;;;3.20;3.00;;;;;;;;;;5043088;28;20444;-76
2022/10/05 14:32:50;;;;;;;1.60;1.60;;;;;;;;;;5047302;28;20762;-76
2022/10/05 14:35:19;;;;;;;1.70;1.70;;;;;;;;;;5042885;28;20429;-77
2022/10/05 14:37:56;;;;;;;2.10;2.00;;;;;;;;;;5045687;28;20444;-76
2022/10/05 14:40:24;;;;;;;2.03;2.03;;;;;;;;;;5043694;28;20513;-74
2022/10/05 14:42:51;;;;;;;1.63;1.63;;;;;;;;;;5046576;28;20453;-76
2022/10/05 14:45:17;;;;;;;1.80;1.80;;;;;;;;;;5042906;28;20441;-76
2022/10/05 14:48:01;;;;;;;2.10;2.00;;;;;;;;;;5045124;28;20544;-76
2022/10/05 14:50:29;;;;;;;2.40;2.33;;;;;;;;;;5041533;28;20706;-75
2022/10/05 14:53:15;;;;;;;3.13;2.40;;;;;;;;;;5028467;28;20433;-76
2022/10/05 14:55:54;;;;;;;2.67;2.60;;;;;;;;;;5043765;28;20536;-77
2022/10/05 14:58:22;;;;;;;2.60;2.60;;;;;;;;;;5043451;28;20752;-75
2022/10/05 15:01:13;;;;;;;2.57;2.57;;;;;;;;;;5044928;28;20619;-76
2022/10/05 15:03:53;;;;;;;2.33;2.30;;;;;;;;;;5044958;28;20441;-75
2022/10/05 15:06:28;;;;;;;2.60;2.50;;;;;;;;;;5035055;28;20588;-75
2022/10/05 15:08:54;;;;;;;3.97;2.27;;;;;;;;;;5034440;28;20473;-76
2022/10/05 15:11:25;;;;;;;2.47;2.27;;;;;;;;;;5034849;28;20478;-75
2022/10/05 15:13:52;;;;;;;1.90;1.90;;;;;;;;;;5037333;28;20437;-76
2022/10/05 15:16:18;;;;;;;2.40;2.40;;;;;;;;;;5035767;28;20841;-77
2022/10/05 15:18:44;;;;;;;2.47;2.47;;;;;;;;;;5036997;28;20449;-77
2022/10/05 15:21:29;;;;;;;2.00;1.90;;;;;;;;;;5057173;28;20734;-76
2022/10/05 15:23:58;;;;;;;2.37;2.10;;;;;;;;;;5059265;28;20490;-76
2022/10/05 15:26:27;;;;;;;2.40;2.20;;;;;;;;;;5051069;28;20436;-75
2022/10/05 15:29:16;;;;;;;2.40;2.20;;;;;;;;;;5045875;28;20433;-76
2022/10/05 15:31:54;;;;;;;2.40;2.40;;;;;;;;;;5044013;28;20468;-75
2022/10/05 15:34:28;;;;;;;2.67;2.57;;;;;;;;;;5048644;28;20466;-76
2022/10/05 15:37:01;;;;;;;2.10;2.10;;;;;;;;;;5055824;28;20445;-75